Time;durP1;ratioP1;P1;durP2;ratioP2;P2;SDS_P1;SDS_P2;PMS_P1;PMS_P2;Temp;Humidity;BMP_temperature;BMP_pressure;BME280_temperature;BME280_humidity;BME280_pressure;Samples;Min_cycle;Max_cycle;Signal;HPM_P1;HPM_P2
2021/03/05 07:47:51;;;;;;;;;;;16.30;85.60;;;;;;5140081;27;19929;-61
2021/03/05 07:50:20;;;;;;;;;;;1.60;99.90;;;;;;5133449;27;19923;-61
2021/03/05 07:52:47;;;;;;;;;;;1.20;99.90;;;;;;5132993;27;19919;-61
2021/03/05 07:55:14;;;;;;;;;;;1.10;99.90;;;;;;5130144;27;19923;-62
2021/03/05 07:57:44;;;;;;;;;;;1.00;99.90;;;;;;5130246;27;19928;-63
2021/03/05 08:00:11;;;;;;;;;;;1.10;99.90;;;;;;5145164;27;19934;-63
2021/03/05 08:02:52;;;;;;;;;;;1.20;99.90;;;;;;5134771;27;20014;-61
2021/03/05 08:05:30;;;;;;;;;;;1.20;99.90;;;;;;5135947;27;19931;-62
2021/03/05 08:08:07;;;;;;;;;;;1.30;99.90;;;;;;5126986;27;19920;-61
2021/03/05 08:10:37;;;;;;;;;;;1.10;99.90;;;;;;5130787;27;19932;-64
2021/03/05 08:13:03;;;;;;;;;;;1.20;99.90;;;;;;5139631;27;19923;-61
2021/03/05 08:15:29;;;;;;;;;;;1.30;99.90;;;;;;5128875;27;19972;-61
2021/03/05 08:17:56;;;;;;;;;;;1.40;99.90;;;;;;5126889;27;19924;-63
2021/03/05 08:20:41;;;;;;;;;;;1.40;99.90;;;;;;5133110;27;19932;-61
2021/03/05 08:23:08;;;;;;;;;;;1.40;99.90;;;;;;5129360;27;19920;-62
2021/03/05 08:25:35;;;;;;;;;;;1.50;99.90;;;;;;5128638;27;20359;-61
2021/03/05 08:28:03;;;;;;;;;;;1.40;99.90;;;;;;5127371;27;19945;-61
2021/03/05 08:30:41;;;;;;;;;;;1.50;99.90;;;;;;5126412;27;19924;-61
2021/03/05 08:33:08;;;;;;;;;;;1.80;99.90;;;;;;5129249;27;20307;-59
2021/03/05 08:35:56;;;;;;;;;;;2.10;99.90;;;;;;5135560;27;19927;-62
2021/03/05 08:38:32;;;;;;;;;;;2.50;99.90;;;;;;5130958;27;19919;-62
2021/03/05 08:41:04;;;;;;;;;;;2.20;99.90;;;;;;5136951;27;20010;-61
2021/03/05 08:43:31;;;;;;;;;;;2.50;99.90;;;;;;5129372;28;19923;-63
2021/03/05 08:47:23;;;;;;;8.43;1.90;;;3.40;99.90;;;;;;5110904;27;20561;-66
2021/03/05 08:49:50;;;;;;;8.20;2.00;;;5.40;99.90;;;;;;5106426;28;21073;-67
2021/03/05 08:52:16;;;;;;;5.43;1.87;;;5.90;99.90;;;;;;5100049;28;20442;-66
2021/03/05 08:54:43;;;;;;;8.40;3.30;;;6.80;99.90;;;;;;5085505;28;20454;-66
2021/03/05 08:57:10;;;;;;;8.37;3.10;;;7.60;99.90;;;;;;5092522;28;20452;-68
2021/03/05 08:59:37;;;;;;;12.20;2.57;;;7.80;99.90;;;;;;5105912;28;20841;-66
2021/03/05 09:02:13;;;;;;;7.47;2.10;;;8.40;99.90;;;;;;5105996;27;20457;-66
2021/03/05 09:04:41;;;;;;;6.80;2.40;;;9.30;99.90;;;;;;5104876;28;20441;-67
2021/03/05 09:07:12;;;;;;;5.83;2.07;;;10.50;99.90;;;;;;5108016;28;20659;-67
2021/03/05 09:09:39;;;;;;;5.17;2.30;;;11.10;99.90;;;;;;5107553;28;20445;-65
2021/03/05 09:12:12;;;;;;;8.90;1.90;;;11.80;99.90;;;;;;5103534;28;20652;-66
2021/03/05 09:14:40;;;;;;;6.07;2.30;;;12.50;99.90;;;;;;5101474;28;21117;-65
2021/03/05 09:17:09;;;;;;;6.10;1.93;;;13.40;99.90;;;;;;5098775;28;20509;-66
2021/03/05 09:19:37;;;;;;;8.23;2.63;;;14.10;99.90;;;;;;5097261;28;20454;-66
2021/03/05 09:22:09;;;;;;;5.73;2.20;;;14.00;97.50;;;;;;5097193;28;20204;-63
2021/03/05 09:25:05;;;;;;;6.60;2.13;;;13.80;95.60;;;;;;5099774;28;20484;-65
2021/03/05 09:27:33;;;;;;;5.23;1.90;;;15.40;96.30;;;;;;5109053;28;20440;-67
2021/03/05 09:30:12;;;;;;;5.90;2.10;;;16.10;92.70;;;;;;5103302;28;20454;-68
2021/03/05 09:32:46;;;;;;;6.53;2.07;;;17.10;92.80;;;;;;5107470;28;20443;-67
2021/03/05 09:35:13;;;;;;;7.13;1.90;;;17.60;86.80;;;;;;5103522;28;20797;-70
2021/03/05 09:37:40;;;;;;;4.97;2.13;;;16.10;83.70;;;;;;5104558;27;20509;-68
2021/03/05 09:40:09;;;;;;;6.20;1.33;;;15.60;84.40;;;;;;5093088;28;20461;-58
2021/03/05 09:42:50;;;;;;;6.73;1.93;;;17.90;99.90;;;;;;5095668;28;20450;-58
2021/03/05 09:45:40;;;;;;;7.17;1.50;;;18.10;99.60;;;;;;5087851;28;20484;-57
2021/03/05 09:48:09;;;;;;;5.73;1.47;;;19.60;94.80;;;;;;5093262;28;20808;-54
2021/03/05 09:50:36;;;;;;;5.93;1.50;;;19.80;90.10;;;;;;5098680;28;20446;-54
2021/03/05 09:53:27;;;;;;;5.13;1.57;;;19.60;86.40;;;;;;5102229;28;20502;-60
2021/03/05 09:55:56;;;;;;;5.20;1.70;;;20.20;86.80;;;;;;5091981;28;20510;-66
2021/03/05 09:58:22;;;;;;;7.27;1.93;;;19.70;66.20;;;;;;5074485;28;20471;-67
2021/03/05 10:00:49;;;;;;;9.20;1.70;;;17.50;64.10;;;;;;5093781;28;20495;-67
2021/03/05 10:03:16;;;;;;;5.00;1.50;;;17.10;68.00;;;;;;5091052;28;20573;-68
2021/03/05 10:05:43;;;;;;;5.13;1.80;;;17.20;68.20;;;;;;5073256;28;20557;-67
2021/03/05 10:08:11;;;;;;;4.60;1.57;;;17.50;66.20;;;;;;5074498;28;20443;-67
2021/03/05 10:11:00;;;;;;;4.77;1.50;;;16.60;67.50;;;;;;5092465;28;20431;-66
2021/03/05 10:13:44;;;;;;;5.20;1.20;;;16.90;66.80;;;;;;5078028;28;20451;-67
2021/03/05 10:16:16;;;;;;;5.80;1.43;;;15.20;67.80;;;;;;5073502;28;20530;-66
2021/03/05 10:18:43;;;;;;;5.03;1.40;;;13.70;67.60;;;;;;5088996;28;20446;-67
2021/03/05 10:21:11;;;;;;;5.67;2.50;;;13.20;69.70;;;;;;5076091;28;20439;-67
2021/03/05 10:23:39;;;;;;;5.80;1.60;;;12.80;69.40;;;;;;5089758;28;20462;-66
2021/03/05 10:26:21;;;;;;;6.30;1.47;;;13.60;73.60;;;;;;5078692;28;20478;-66
2021/03/05 10:28:53;;;;;;;4.33;1.27;;;13.90;72.60;;;;;;5091341;28;20842;-65
2021/03/05 10:31:38;;;;;;;5.30;1.83;;;14.90;69.60;;;;;;5072001;28;20432;-64
2021/03/05 10:34:04;;;;;;;6.10;1.60;;;14.70;69.30;;;;;;5073181;28;20479;-65
2021/03/05 10:36:31;;;;;;;4.33;1.17;;;16.10;70.70;;;;;;5070894;28;20454;-64
2021/03/05 10:38:58;;;;;;;9.10;1.93;;;17.30;68.80;;;;;;5071062;28;20439;-66
2021/03/05 10:41:25;;;;;;;5.07;1.47;;;16.80;65.30;;;;;;5068713;28;20459;-67
2021/03/05 10:43:51;;;;;;;6.43;1.50;;;18.60;66.60;;;;;;5084840;28;20527;-66
2021/03/05 10:46:19;;;;;;;6.20;1.47;;;16.70;63.60;;;;;;5084300;28;20829;-67
2021/03/05 10:48:46;;;;;;;5.40;1.30;;;17.10;63.80;;;;;;5071936;28;20518;-68
2021/03/05 10:51:12;;;;;;;6.07;1.77;;;16.40;64.00;;;;;;5086385;28;20473;-68
2021/03/05 10:53:39;;;;;;;4.43;1.57;;;15.40;63.80;;;;;;5091372;28;21019;-66
2021/03/05 10:56:06;;;;;;;4.80;1.30;;;16.90;64.80;;;;;;5091124;28;20507;-67
2021/03/05 10:58:34;;;;;;;4.77;1.20;;;17.90;62.50;;;;;;5076102;28;20457;-68
2021/03/05 11:01:03;;;;;;;4.17;1.50;;;18.40;59.10;;;;;;5070079;28;20449;-66
2021/03/05 11:03:30;;;;;;;4.40;1.20;;;19.20;61.30;;;;;;5073418;28;20779;-70
2021/03/05 11:05:56;;;;;;;6.07;1.40;;;19.00;59.50;;;;;;5072029;28;20570;-72
2021/03/05 11:08:22;;;;;;;5.23;1.37;;;17.80;59.30;;;;;;5084395;28;20936;-65
2021/03/05 11:10:49;;;;;;;5.43;1.50;;;16.90;59.10;;;;;;5090642;28;20450;-66
2021/03/05 11:13:16;;;;;;;6.70;1.33;;;17.50;60.70;;;;;;5084844;28;20458;-66
2021/03/05 11:15:43;;;;;;;5.33;1.10;;;17.30;59.70;;;;;;5071826;28;20455;-68
2021/03/05 11:18:10;;;;;;;5.23;1.40;;;18.00;59.50;;;;;;5080493;28;20802;-67
2021/03/05 11:20:36;;;;;;;5.77;1.40;;;18.80;57.40;;;;;;5079196;28;20435;-66
2021/03/05 11:23:03;;;;;;;3.93;1.17;;;17.10;57.90;;;;;;5092313;28;20442;-69
2021/03/05 11:25:29;;;;;;;5.87;1.10;;;16.50;59.30;;;;;;5088925;28;20480;-68
2021/03/05 11:27:56;;;;;;;4.30;1.30;;;17.80;58.00;;;;;;5090506;28;20435;-70
2021/03/05 11:30:23;;;;;;;4.73;1.20;;;18.70;58.30;;;;;;5080155;28;20447;-69
2021/03/05 11:32:50;;;;;;;6.03;1.37;;;19.20;55.50;;;;;;5078704;28;20864;-67
2021/03/05 11:35:17;;;;;;;5.83;1.20;;;18.80;56.00;;;;;;5078157;28;20483;-67
2021/03/05 11:37:43;;;;;;;5.65;1.20;;;19.10;57.60;;;;;;5092424;28;20457;-69
2021/03/05 11:40:11;;;;;;;4.00;1.00;;;20.50;54.00;;;;;;5075963;28;20187;-69
2021/03/05 11:42:37;;;;;;;4.73;1.03;;;21.70;52.50;;;;;;5083294;28;21134;-67
2021/03/05 11:45:05;;;;;;;4.00;1.17;;;19.50;52.50;;;;;;5101179;28;20795;-69
2021/03/05 11:47:32;;;;;;;5.00;1.37;;;19.90;52.70;;;;;;5108145;28;20445;-68
2021/03/05 11:50:00;;;;;;;5.63;1.60;;;19.50;53.40;;;;;;5073419;28;20531;-68
2021/03/05 11:52:27;;;;;;;6.10;1.23;;;19.90;51.90;;;;;;5071925;28;20463;-68
2021/03/05 11:54:54;;;;;;;4.67;1.13;;;19.50;51.60;;;;;;5072577;28;20717;-69
2021/03/05 11:57:20;;;;;;;7.03;1.83;;;20.10;53.50;;;;;;5076043;28;20466;-67
2021/03/05 11:59:47;;;;;;;4.90;1.30;;;20.90;52.50;;;;;;5090629;28;20454;-68
2021/03/05 12:02:13;;;;;;;5.80;1.50;;;20.90;51.50;;;;;;5089701;28;20480;-65
2021/03/05 12:04:40;;;;;;;5.70;1.33;;;21.90;52.90;;;;;;5081178;28;20530;-71
2021/03/05 12:07:07;;;;;;;6.00;1.40;;;23.80;50.60;;;;;;5083012;28;20470;-71
2021/03/05 12:09:34;;;;;;;4.97;1.77;;;23.60;50.40;;;;;;5080124;28;21080;-69
2021/03/05 12:12:01;;;;;;;4.03;1.20;;;22.00;47.50;;;;;;5072146;28;20535;-69
2021/03/05 12:14:27;;;;;;;4.70;1.30;;;22.40;48.50;;;;;;5081218;28;20948;-68
2021/03/05 12:16:54;;;;;;;4.20;1.10;;;22.10;48.20;;;;;;5079921;28;20495;-68
2021/03/05 12:19:20;;;;;;;5.20;1.30;;;20.30;48.20;;;;;;5070836;28;20815;-67
2021/03/05 12:21:47;;;;;;;4.03;1.00;;;20.60;48.90;;;;;;5083523;28;20443;-68
2021/03/05 12:24:26;;;;;;;4.00;1.10;;;20.90;48.50;;;;;;5087255;28;20458;-67
2021/03/05 12:26:53;;;;;;;4.50;1.40;;;20.60;46.70;;;;;;5086587;28;20987;-70
2021/03/05 12:29:20;;;;;;;4.17;1.30;;;19.50;46.70;;;;;;5086708;28;20438;-69
2021/03/05 12:31:47;;;;;;;6.77;1.63;;;18.30;47.40;;;;;;5079005;28;20532;-68
2021/03/05 12:34:13;;;;;;;4.63;1.10;;;19.20;48.70;;;;;;5076819;28;20454;-64
2021/03/05 12:36:40;;;;;;;4.63;1.03;;;20.40;49.40;;;;;;5068755;28;20522;-70
2021/03/05 12:39:06;;;;;;;5.30;1.30;;;21.50;49.20;;;;;;5098334;28;20957;-66
2021/03/05 12:41:34;;;;;;;5.00;1.23;;;22.30;45.80;;;;;;5096210;28;20456;-67
2021/03/05 12:44:01;;;;;;;4.63;1.13;;;22.70;47.00;;;;;;5067779;28;20467;-68
2021/03/05 12:46:27;;;;;;;4.57;1.27;;;21.80;46.10;;;;;;5089813;28;20517;-67
2021/03/05 12:48:54;;;;;;;5.40;1.37;;;21.30;47.60;;;;;;5081114;28;20430;-65
2021/03/05 12:51:20;;;;;;;5.30;1.43;;;22.10;44.20;;;;;;5086621;28;20457;-69
2021/03/05 12:53:47;;;;;;;3.80;1.10;;;22.20;44.40;;;;;;5077487;28;20438;-65
2021/03/05 12:56:14;;;;;;;4.10;1.30;;;22.50;44.20;;;;;;5073820;28;20443;-66
2021/03/05 12:58:41;;;;;;;3.63;1.07;;;23.60;46.30;;;;;;5076890;28;20448;-69
2021/03/05 13:01:07;;;;;;;5.10;1.20;;;23.00;43.20;;;;;;5078152;28;20458;-66
2021/03/05 13:03:34;;;;;;;4.30;1.20;;;22.90;42.50;;;;;;5085119;28;20458;-70
2021/03/05 13:06:01;;;;;;;4.07;1.10;;;24.30;45.20;;;;;;5084132;28;20477;-67
2021/03/05 13:08:27;;;;;;;5.80;1.20;;;23.20;44.40;;;;;;5058333;28;20441;-68
2021/03/05 13:10:54;;;;;;;4.23;1.40;;;23.60;42.50;;;;;;5088613;28;20446;-66
2021/03/05 13:13:21;;;;;;;4.00;1.20;;;22.60;39.80;;;;;;5089118;28;20442;-66
2021/03/05 13:15:48;;;;;;;5.13;1.50;;;23.50;44.80;;;;;;5090534;28;20445;-67
2021/03/05 13:18:16;;;;;;;5.40;1.40;;;21.70;42.00;;;;;;5088478;28;20438;-68
2021/03/05 13:20:43;;;;;;;4.87;1.23;;;22.00;42.50;;;;;;5083591;28;20439;-65
2021/03/05 13:23:09;;;;;;;4.97;1.40;;;22.80;42.20;;;;;;5092261;28;20788;-65
2021/03/05 13:25:38;;;;;;;5.67;1.97;;;23.00;42.20;;;;;;5087557;28;20474;-68
2021/03/05 13:28:05;;;;;;;4.80;1.03;;;24.10;42.80;;;;;;5085574;28;20537;-67
2021/03/05 13:30:32;;;;;;;4.93;1.20;;;24.30;42.80;;;;;;5088890;28;20435;-68
2021/03/05 13:33:00;;;;;;;7.30;1.63;;;25.80;40.40;;;;;;5086027;28;20446;-60
2021/03/05 13:35:27;;;;;;;6.53;1.60;;;25.30;64.60;;;;;;5088617;28;20507;-55
2021/03/05 13:37:54;;;;;;;6.72;1.45;;;25.30;54.70;;;;;;5090688;28;20439;-59
2021/03/05 13:40:20;;;;;;;5.07;1.20;;;25.70;48.80;;;;;;5089650;28;20370;-65
2021/03/05 13:42:47;;;;;;;5.77;1.60;;;25.90;40.80;;;;;;5092420;28;20822;-66
2021/03/05 13:45:14;;;;;;;4.97;1.50;;;25.00;38.40;;;;;;5073488;28;20966;-69
2021/03/05 13:47:42;;;;;;;5.10;1.50;;;23.20;37.90;;;;;;5074216;28;20447;-69
2021/03/05 13:50:11;;;;;;;4.47;1.20;;;24.30;38.70;;;;;;5080734;28;20468;-64
2021/03/05 13:52:38;;;;;;;5.80;1.50;;;23.20;39.80;;;;;;5091832;28;20468;-71
2021/03/05 13:55:05;;;;;;;6.37;1.30;;;21.70;38.20;;;;;;5073976;28;20470;-67
2021/03/05 13:57:32;;;;;;;6.00;1.37;;;21.40;41.30;;;;;;5082929;28;20462;-71
2021/03/05 13:59:58;;;;;;;3.80;1.13;;;23.40;40.90;;;;;;5076463;28;20443;-68
2021/03/05 14:02:25;;;;;;;4.00;1.07;;;22.80;38.80;;;;;;5078226;28;20491;-67
2021/03/05 14:04:51;;;;;;;4.03;1.20;;;23.70;38.00;;;;;;5090777;28;20803;-67
2021/03/05 14:07:19;;;;;;;6.20;1.50;;;24.10;39.90;;;;;;5092573;28;20493;-68
2021/03/05 14:09:45;;;;;;;4.10;1.07;;;23.70;38.60;;;;;;5090103;28;20450;-71
2021/03/05 14:12:12;;;;;;;4.47;1.30;;;20.80;38.30;;;;;;5090160;28;20442;-66
2021/03/05 14:14:39;;;;;;;4.03;1.20;;;19.90;38.80;;;;;;5082210;28;20822;-70
2021/03/05 14:17:05;;;;;;;6.43;1.23;;;20.50;38.70;;;;;;5063946;28;20454;-65
2021/03/05 14:19:32;;;;;;;6.13;1.60;;;22.10;39.80;;;;;;5091248;28;20780;-66
2021/03/05 14:21:59;;;;;;;4.70;1.20;;;23.30;39.70;;;;;;5089694;28;20465;-70
2021/03/05 14:24:26;;;;;;;6.90;1.30;;;20.50;37.60;;;;;;5072549;28;20450;-65
2021/03/05 14:26:53;;;;;;;5.13;1.40;;;20.80;39.00;;;;;;5088607;28;20535;-67
2021/03/05 14:29:19;;;;;;;5.23;1.33;;;21.60;38.80;;;;;;5083113;28;20520;-68
2021/03/05 14:31:46;;;;;;;3.90;1.00;;;21.80;38.00;;;;;;5076363;28;20447;-73
2021/03/05 14:34:14;;;;;;;4.10;1.10;;;21.90;38.80;;;;;;5070861;28;20442;-65
2021/03/05 14:36:41;;;;;;;4.13;1.20;;;21.50;38.70;;;;;;5072136;28;20509;-69
2021/03/05 14:39:08;;;;;;;5.50;1.40;;;18.50;38.90;;;;;;5075936;28;21107;-69
2021/03/05 14:41:37;;;;;;;5.40;1.47;;;18.10;39.30;;;;;;5080793;28;20468;-68
2021/03/05 14:44:04;;;;;;;5.10;1.60;;;17.20;39.00;;;;;;5078979;28;20467;-65
2021/03/05 14:46:30;;;;;;;6.20;1.20;;;17.40;39.80;;;;;;5083310;28;20482;-67
2021/03/05 14:48:57;;;;;;;6.13;1.20;;;18.00;40.90;;;;;;5073462;28;20462;-67
2021/03/05 14:51:24;;;;;;;3.90;1.13;;;18.40;39.30;;;;;;5076432;28;20526;-67
2021/03/05 14:53:50;;;;;;;7.73;1.23;;;16.50;39.50;;;;;;5072519;28;20839;-69
2021/03/05 14:56:17;;;;;;;4.37;1.10;;;15.80;39.90;;;;;;5084409;28;20446;-72
2021/03/05 14:58:45;;;;;;;4.03;1.10;;;14.20;41.30;;;;;;5074838;28;20443;-67
2021/03/05 15:01:11;;;;;;;4.30;1.10;;;12.40;44.50;;;;;;5071666;28;20439;-65
2021/03/05 15:03:38;;;;;;;3.77;1.03;;;11.60;44.40;;;;;;5088370;28;20438;-65
2021/03/05 15:06:04;;;;;;;5.10;1.10;;;11.00;45.00;;;;;;5090348;28;20490;-64
2021/03/05 15:08:31;;;;;;;5.10;1.03;;;10.60;45.70;;;;;;5083075;28;20446;-69
2021/03/05 15:10:57;;;;;;;3.90;1.10;;;10.40;44.30;;;;;;5091346;28;20882;-65
2021/03/05 15:13:24;;;;;;;5.40;1.20;;;10.00;45.50;;;;;;5075452;28;20513;-68
2021/03/05 15:15:51;;;;;;;4.00;1.30;;;9.60;48.10;;;;;;5069229;28;20455;-68
2021/03/05 15:18:18;;;;;;;5.93;1.50;;;9.00;48.40;;;;;;5074328;28;20443;-65
2021/03/05 15:20:45;;;;;;;4.63;1.00;;;8.60;48.80;;;;;;5079062;28;20450;-68
2021/03/05 15:23:11;;;;;;;4.97;1.10;;;8.30;47.90;;;;;;5071792;28;20533;-66
2021/03/05 15:25:38;;;;;;;7.00;2.90;;;8.00;48.00;;;;;;5074521;28;20455;-67
2021/03/05 15:28:05;;;;;;;4.73;1.30;;;7.90;48.90;;;;;;5089977;28;20818;-65
2021/03/05 15:30:32;;;;;;;5.60;1.23;;;7.70;49.40;;;;;;5081647;28;21002;-64
2021/03/05 15:32:59;;;;;;;4.27;1.30;;;7.70;51.20;;;;;;5083445;28;20443;-65
2021/03/05 15:35:25;;;;;;;3.93;1.10;;;7.50;49.90;;;;;;5086135;28;20461;-65
2021/03/05 15:37:52;;;;;;;6.47;1.30;;;7.40;50.80;;;;;;5068762;28;20819;-69
2021/03/05 15:40:18;;;;;;;4.23;1.80;;;7.50;51.50;;;;;;5084582;28;20964;-65
2021/03/05 15:42:45;;;;;;;5.40;1.93;;;7.50;51.60;;;;;;5083567;28;20450;-69
2021/03/05 15:45:12;;;;;;;4.50;1.73;;;7.20;49.50;;;;;;5086527;28;20774;-69
2021/03/05 15:47:39;;;;;;;5.50;1.50;;;7.10;50.00;;;;;;5072920;28;20498;-66
2021/03/05 15:50:09;;;;;;;4.30;1.50;;;7.10;49.90;;;;;;5077552;28;20442;-68
2021/03/05 15:52:35;;;;;;;7.83;1.27;;;7.10;51.30;;;;;;5085979;28;20446;-67
2021/03/05 15:55:02;;;;;;;4.63;1.50;;;6.90;51.30;;;;;;5068409;28;20505;-72
2021/03/05 15:57:29;;;;;;;5.23;1.20;;;6.80;52.30;;;;;;5079715;28;20465;-65
2021/03/05 15:59:55;;;;;;;5.17;1.13;;;6.80;52.10;;;;;;5086159;28;20450;-68
2021/03/05 16:02:22;;;;;;;3.60;1.00;;;6.70;52.80;;;;;;5084883;28;20542;-66
2021/03/05 16:04:48;;;;;;;4.83;1.17;;;6.60;51.90;;;;;;5085157;28;20450;-68
2021/03/05 16:07:16;;;;;;;3.83;1.20;;;6.60;52.20;;;;;;5082392;28;20577;-69
2021/03/05 16:09:42;;;;;;;4.07;1.07;;;6.60;53.60;;;;;;5077008;28;20506;-66
2021/03/05 16:12:09;;;;;;;4.40;1.03;;;6.50;52.70;;;;;;5076071;28;20541;-66
2021/03/05 16:14:36;;;;;;;4.03;1.10;;;6.50;52.10;;;;;;5082656;28;20440;-67
2021/03/05 16:17:03;;;;;;;7.93;1.10;;;6.50;51.90;;;;;;5068311;28;20460;-66
2021/03/05 16:19:29;;;;;;;6.33;1.23;;;6.50;52.00;;;;;;5069002;28;20526;-67
2021/03/05 16:21:56;;;;;;;3.80;1.00;;;6.40;52.30;;;;;;5086744;28;20954;-67
2021/03/05 16:24:23;;;;;;;4.70;1.57;;;6.30;51.30;;;;;;5080460;28;20541;-67
2021/03/05 16:26:49;;;;;;;4.40;1.30;;;6.20;52.40;;;;;;5082839;28;20967;-67
2021/03/05 16:29:16;;;;;;;5.93;1.50;;;6.30;52.10;;;;;;5088517;28;20450;-67
2021/03/05 16:31:45;;;;;;;4.83;1.37;;;6.30;54.50;;;;;;5080488;28;20482;-66
2021/03/05 16:34:12;;;;;;;3.83;0.97;;;6.30;53.80;;;;;;5073405;28;20438;-66
2021/03/05 16:36:39;;;;;;;4.00;0.90;;;6.20;53.70;;;;;;5075394;28;20530;-67
2021/03/05 16:39:06;;;;;;;4.30;1.10;;;6.30;52.90;;;;;;5083777;28;20521;-66
2021/03/05 16:41:34;;;;;;;3.77;1.10;;;6.20;53.00;;;;;;5085484;28;20997;-67
2021/03/05 16:44:00;;;;;;;6.17;1.30;;;6.20;52.70;;;;;;5088734;28;20533;-67
2021/03/05 16:46:27;;;;;;;3.97;1.07;;;6.10;53.20;;;;;;5067348;28;20515;-68
2021/03/05 16:48:53;;;;;;;4.43;1.20;;;6.00;53.00;;;;;;5072900;28;20943;-66
2021/03/05 16:51:24;;;;;;;3.57;1.10;;;5.80;52.40;;;;;;5084910;28;20448;-66
2021/03/05 16:53:51;;;;;;;4.03;1.20;;;5.80;53.10;;;;;;5088694;28;20438;-67
2021/03/05 16:56:17;;;;;;;6.07;1.50;;;5.70;53.80;;;;;;5087695;28;20474;-66
2021/03/05 16:58:45;;;;;;;5.70;1.30;;;5.60;54.40;;;;;;5068808;28;20524;-68
2021/03/05 17:01:11;;;;;;;4.70;1.30;;;5.50;54.00;;;;;;5070199;28;20443;-67
2021/03/05 17:03:38;;;;;;;4.07;1.20;;;5.50;55.00;;;;;;5068006;28;20441;-66
2021/03/05 17:06:05;;;;;;;4.83;1.33;;;5.50;54.40;;;;;;5085478;28;20484;-68
2021/03/05 17:08:32;;;;;;;4.03;1.20;;;5.40;54.10;;;;;;5093420;28;20791;-66
2021/03/05 17:10:58;;;;;;;5.43;1.50;;;5.50;55.10;;;;;;5078741;28;20446;-66
2021/03/05 17:13:25;;;;;;;5.70;1.50;;;5.50;57.40;;;;;;5075703;28;20515;-66
2021/03/05 17:15:52;;;;;;;5.53;1.90;;;5.40;56.80;;;;;;5094632;28;20449;-66
2021/03/05 17:18:19;;;;;;;6.67;1.90;;;5.30;55.80;;;;;;5100628;28;20434;-66
2021/03/05 17:20:46;;;;;;;4.57;1.50;;;5.40;57.30;;;;;;5093963;28;20532;-66
2021/03/05 17:23:12;;;;;;;3.97;1.43;;;5.40;59.20;;;;;;5084478;28;20442;-67
2021/03/05 17:25:39;;;;;;;4.97;1.60;;;5.40;58.80;;;;;;5089676;28;20445;-69
2021/03/05 17:28:13;;;;;;;5.97;2.30;;;5.40;57.90;;;;;;5089223;28;20454;-66
2021/03/05 17:30:40;;;;;;;5.17;1.40;;;5.30;59.10;;;;;;5081629;28;21002;-67
2021/03/05 17:33:08;;;;;;;5.80;1.63;;;5.20;56.90;;;;;;5080857;28;20450;-66
2021/03/05 17:35:34;;;;;;;5.00;1.80;;;5.10;56.90;;;;;;5091565;28;20535;-66
2021/03/05 17:38:01;;;;;;;6.30;1.97;;;5.20;58.10;;;;;;5073772;28;20540;-66
2021/03/05 17:40:27;;;;;;;5.00;2.00;;;5.00;58.30;;;;;;5054542;28;20856;-66
2021/03/05 17:42:54;;;;;;;4.50;1.60;;;5.00;61.70;;;;;;5076998;28;20447;-67
2021/03/05 17:45:21;;;;;;;5.20;1.50;;;5.00;61.20;;;;;;5082612;28;20457;-66
2021/03/05 17:47:47;;;;;;;4.67;1.50;;;4.90;60.60;;;;;;5077229;28;20478;-67
2021/03/05 17:50:15;;;;;;;5.47;1.63;;;4.90;62.00;;;;;;5073693;28;20617;-68
2021/03/05 17:52:42;;;;;;;6.33;1.70;;;4.80;64.00;;;;;;5077568;28;20852;-67
2021/03/05 17:55:09;;;;;;;8.87;2.23;;;4.70;66.00;;;;;;5091821;28;20477;-67
2021/03/05 17:57:36;;;;;;;7.90;2.70;;;4.60;61.20;;;;;;5093773;28;20781;-66
2021/03/05 18:00:03;;;;;;;6.50;2.80;;;4.60;62.20;;;;;;5087799;28;20564;-67
2021/03/05 18:02:30;;;;;;;5.90;2.10;;;4.60;67.90;;;;;;5086637;28;20548;-65
2021/03/05 18:04:57;;;;;;;6.80;2.80;;;4.50;72.70;;;;;;5085382;28;20836;-63
2021/03/05 18:07:24;;;;;;;5.10;2.30;;;4.60;70.90;;;;;;5074739;28;20502;-65
2021/03/05 18:09:51;;;;;;;6.87;1.90;;;4.50;72.30;;;;;;5082916;28;20852;-64
2021/03/05 18:12:17;;;;;;;4.43;1.70;;;4.40;75.50;;;;;;5096641;28;20478;-64
2021/03/05 18:14:44;;;;;;;4.90;1.73;;;4.40;77.50;;;;;;5097858;28;20469;-65
2021/03/05 18:17:10;;;;;;;5.20;1.90;;;4.30;81.20;;;;;;5093177;28;20432;-63
2021/03/05 18:19:37;;;;;;;5.47;1.60;;;4.20;82.60;;;;;;5081229;28;20942;-63
2021/03/05 18:22:04;;;;;;;5.70;1.90;;;4.20;82.10;;;;;;5085547;28;20548;-63
2021/03/05 18:24:49;;;;;;;6.43;1.60;;;4.10;88.40;;;;;;5099714;28;20537;-64
2021/03/05 18:27:16;;;;;;;6.00;1.50;;;4.00;86.00;;;;;;5080779;28;20496;-64
2021/03/05 18:29:43;;;;;;;4.90;1.90;;;3.90;91.70;;;;;;5087396;28;20556;-66
2021/03/05 18:32:11;;;;;;;5.63;1.90;;;3.90;95.40;;;;;;5071652;28;20444;-64
2021/03/05 18:34:39;;;;;;;6.47;2.40;;;3.80;97.50;;;;;;5080978;28;20450;-63
2021/03/05 18:37:15;;;;;;;5.53;2.20;;;3.80;99.90;;;;;;5077982;28;20615;-67
2021/03/05 18:39:45;;;;;;;5.87;2.50;;;3.70;99.90;;;;;;5074069;28;20569;-64
2021/03/05 18:42:17;;;;;;;5.83;1.87;;;3.60;99.90;;;;;;5078580;28;20859;-65
2021/03/05 18:44:43;;;;;;;6.57;2.10;;;3.60;99.90;;;;;;5075476;28;20445;-69
2021/03/05 18:47:13;;;;;;;7.47;2.37;;;3.50;99.90;;;;;;5076090;28;21052;-63
2021/03/05 18:49:40;;;;;;;6.10;2.73;;;3.50;99.90;;;;;;5085378;28;20487;-65
2021/03/05 18:52:08;;;;;;;8.00;2.80;;;3.40;99.90;;;;;;5087518;28;20446;-66
2021/03/05 18:54:35;;;;;;;7.17;3.10;;;3.40;99.90;;;;;;5089052;28;20946;-67
2021/03/05 18:57:01;;;;;;;5.47;2.40;;;3.20;99.90;;;;;;5088169;28;21011;-63
2021/03/05 18:59:29;;;;;;;7.30;2.80;;;3.20;99.90;;;;;;5090294;28;20470;-64
2021/03/05 19:02:02;;;;;;;5.90;2.83;;;3.10;99.90;;;;;;5088894;28;20493;-63
2021/03/05 19:04:30;;;;;;;7.97;2.93;;;3.00;99.90;;;;;;5091325;28;20519;-63
2021/03/05 19:06:57;;;;;;;8.63;3.70;;;3.00;99.90;;;;;;5097529;28;20846;-63
2021/03/05 19:09:23;;;;;;;5.80;2.60;;;2.90;99.90;;;;;;5094946;28;20517;-64
2021/03/05 19:11:51;;;;;;;9.00;3.30;;;2.80;99.90;;;;;;5101368;27;20447;-64
2021/03/05 19:14:18;;;;;;;7.60;3.00;;;2.80;99.90;;;;;;5079543;28;20418;-63
2021/03/05 19:16:45;;;;;;;10.00;4.00;;;2.70;99.90;;;;;;5105106;28;20852;-62
2021/03/05 19:19:12;;;;;;;7.37;3.13;;;2.60;99.90;;;;;;5097597;28;20420;-62
2021/03/05 19:21:38;;;;;;;11.07;3.73;;;2.60;99.90;;;;;;5082595;28;20534;-66
2021/03/05 19:24:06;;;;;;;9.93;3.37;;;2.50;99.90;;;;;;5083072;28;20508;-63
2021/03/05 19:26:33;;;;;;;6.93;3.50;;;2.50;99.90;;;;;;5087034;28;20487;-64
2021/03/05 19:29:00;;;;;;;9.50;4.20;;;2.40;99.90;;;;;;5086206;28;20486;-64
2021/03/05 19:31:26;;;;;;;11.63;3.50;;;2.30;99.90;;;;;;5085654;28;20469;-63
2021/03/05 19:33:53;;;;;;;7.40;3.30;;;2.20;99.90;;;;;;5069132;28;20449;-64
2021/03/05 19:36:20;;;;;;;7.13;3.23;;;2.30;99.90;;;;;;5073055;28;20474;-64
2021/03/05 19:38:47;;;;;;;11.90;4.07;;;2.20;99.90;;;;;;5089208;28;20446;-62
2021/03/05 19:41:14;;;;;;;8.37;4.10;;;2.20;99.90;;;;;;5083995;28;20963;-62
2021/03/05 19:43:41;;;;;;;7.47;3.80;;;2.10;99.90;;;;;;5079933;28;20530;-63
2021/03/05 19:46:07;;;;;;;8.90;3.80;;;2.10;99.90;;;;;;5085992;28;20455;-62
2021/03/05 19:48:36;;;;;;;10.40;4.37;;;2.10;99.90;;;;;;5057095;28;20504;-62
2021/03/05 19:51:05;;;;;;;10.30;4.00;;;2.10;99.90;;;;;;5088058;28;20416;-62
2021/03/05 19:53:32;;;;;;;8.60;3.47;;;2.00;99.90;;;;;;5088971;28;20507;-62
2021/03/05 19:55:59;;;;;;;7.20;3.53;;;1.90;99.90;;;;;;5071181;28;20446;-62
2021/03/05 19:58:25;;;;;;;7.30;3.60;;;1.90;99.90;;;;;;5073120;28;20276;-62
2021/03/05 20:00:52;;;;;;;13.13;4.70;;;1.80;99.90;;;;;;5091781;28;20435;-62
2021/03/05 20:03:19;;;;;;;11.00;5.00;;;1.80;99.90;;;;;;5087821;28;20462;-62
2021/03/05 20:05:46;;;;;;;9.17;3.90;;;1.70;99.90;;;;;;5100756;28;20517;-61
2021/03/05 20:08:14;;;;;;;9.13;4.00;;;1.70;99.90;;;;;;5087326;28;20525;-65
2021/03/05 20:10:43;;;;;;;9.13;4.10;;;1.70;99.90;;;;;;5070989;28;20236;-65
2021/03/05 20:13:10;;;;;;;10.63;4.93;;;1.70;99.90;;;;;;5069198;28;20240;-62
2021/03/05 20:15:37;;;;;;;10.30;4.43;;;1.60;99.90;;;;;;5085332;28;20274;-62
2021/03/05 20:18:03;;;;;;;10.05;5.07;;;1.60;99.90;;;;;;5079457;28;20241;-62
2021/03/05 20:20:30;;;;;;;9.00;4.30;;;1.50;99.90;;;;;;5089899;28;20196;-62
2021/03/05 20:22:57;;;;;;;12.23;4.60;;;1.50;99.90;;;;;;5074992;28;20559;-62
2021/03/05 20:25:24;;;;;;;11.50;4.30;;;1.50;99.90;;;;;;5072706;28;20537;-62
2021/03/05 20:27:51;;;;;;;9.55;4.35;;;1.50;99.90;;;;;;5073181;28;20715;-64
2021/03/05 20:30:18;;;;;;;11.20;4.97;;;1.50;99.90;;;;;;5087101;28;20284;-64
2021/03/05 20:32:45;;;;;;;13.38;5.00;;;1.50;99.90;;;;;;5087379;28;20490;-64
2021/03/05 20:35:12;;;;;;;17.10;5.55;;;1.40;99.90;;;;;;5087760;28;20196;-66
2021/03/05 20:37:39;;;;;;;11.70;5.90;;;1.30;99.90;;;;;;5074046;28;20234;-65
2021/03/05 20:40:07;;;;;;;13.10;5.40;;;1.30;99.90;;;;;;5088859;28;20832;-64
2021/03/05 20:42:35;;;;;;;12.23;5.27;;;1.30;99.90;;;;;;5073459;28;20477;-66
2021/03/05 20:45:02;;;;;;;13.38;5.60;;;1.30;99.90;;;;;;5088595;28;20871;-64
2021/03/05 20:47:28;;;;;;;11.43;5.53;;;1.30;99.90;;;;;;5084178;28;20645;-65
2021/03/05 20:49:55;;;;;;;13.35;5.35;;;1.20;99.90;;;;;;5079260;28;20588;-64